Time;durP1;ratioP1;P1;durP2;ratioP2;P2;SDS_P1;SDS_P2;PMS_P1;PMS_P2;Temp;Humidity;BMP_temperature;BMP_pressure;BME280_temperature;BME280_humidity;BME280_pressure;Samples;Min_cycle;Max_cycle;Signal;HPM_P1;HPM_P2
2021/12/06 00:02:14;;;;;;;25.70;17.92;;;3.90;99.90;;;;;;5096649;28;20040;-70
2021/12/06 00:04:40;;;;;;;24.15;16.48;;;3.90;99.90;;;;;;5096825;28;20056;-69
2021/12/06 00:07:12;;;;;;;23.98;16.92;;;4.00;99.90;;;;;;5096774;28;20039;-69
2021/12/06 00:09:39;;;;;;;23.15;16.42;;;4.00;99.90;;;;;;5096163;28;20031;-70
2021/12/06 00:12:05;;;;;;;23.73;16.42;;;4.00;99.90;;;;;;5096503;28;20059;-69
2021/12/06 00:14:35;;;;;;;24.85;16.98;;;3.90;99.90;;;;;;5079738;28;20331;-69
2021/12/06 00:17:06;;;;;;;24.45;17.13;;;4.00;99.90;;;;;;5096355;28;20044;-69
2021/12/06 00:19:32;;;;;;;26.33;18.27;;;3.90;99.90;;;;;;5095900;28;20036;-69
2021/12/06 00:22:00;;;;;;;25.20;17.55;;;3.80;99.90;;;;;;5079776;28;20040;-69
2021/12/06 00:24:26;;;;;;;23.08;17.08;;;3.90;99.90;;;;;;5096206;28;20047;-69
2021/12/06 00:26:52;;;;;;;24.13;16.85;;;3.90;99.90;;;;;;5096624;28;20036;-69
2021/12/06 00:29:18;;;;;;;25.75;16.45;;;3.90;99.90;;;;;;5095456;28;20128;-70
2021/12/06 00:31:44;;;;;;;27.25;17.13;;;3.80;99.90;;;;;;5078998;28;20582;-69
2021/12/06 00:34:15;;;;;;;24.05;16.30;;;3.80;99.90;;;;;;5096018;28;20044;-69
2021/12/06 00:36:51;;;;;;;27.23;19.20;;;3.90;99.90;;;;;;5095978;28;20431;-69
2021/12/06 00:39:18;;;;;;;27.67;19.50;;;3.80;99.90;;;;;;5095353;28;20465;-69
2021/12/06 00:41:43;;;;;;;27.08;18.25;;;3.80;99.90;;;;;;5096043;28;20504;-69
2021/12/06 00:44:09;;;;;;;25.77;17.42;;;3.70;99.90;;;;;;5095673;28;20044;-69
2021/12/06 00:46:37;;;;;;;26.33;19.10;;;3.80;99.90;;;;;;5078613;28;20055;-69
2021/12/06 00:49:04;;;;;;;25.50;16.23;;;3.70;99.90;;;;;;5095908;28;20044;-69
2021/12/06 00:51:30;;;;;;;26.10;17.85;;;3.80;99.90;;;;;;5095595;28;20444;-69
2021/12/06 00:53:55;;;;;;;26.42;19.17;;;3.80;99.90;;;;;;5095397;28;20054;-69
2021/12/06 00:56:21;;;;;;;24.98;18.48;;;3.60;99.90;;;;;;5095990;28;20067;-68
2021/12/06 00:58:46;;;;;;;26.55;18.95;;;3.70;99.90;;;;;;5079039;28;20048;-69
2021/12/06 01:01:13;;;;;;;27.48;18.08;;;3.70;99.90;;;;;;5094667;28;20047;-69
2021/12/06 01:03:40;;;;;;;25.10;18.52;;;3.70;99.90;;;;;;5078939;28;20498;-69
2021/12/06 01:06:08;;;;;;;24.67;18.13;;;3.80;99.90;;;;;;5095440;28;20496;-69
2021/12/06 01:08:33;;;;;;;26.88;17.55;;;3.70;99.90;;;;;;5095430;28;20098;-68
2021/12/06 01:11:00;;;;;;;27.67;16.92;;;3.80;99.90;;;;;;5077792;28;20124;-69
2021/12/06 01:13:26;;;;;;;28.27;17.05;;;3.60;99.90;;;;;;5078387;28;20097;-69
2021/12/06 01:15:54;;;;;;;26.45;18.48;;;3.60;99.90;;;;;;5095124;28;20039;-69
2021/12/06 01:18:21;;;;;;;28.83;19.42;;;3.70;99.90;;;;;;5095641;28;20055;-69
2021/12/06 01:20:57;;;;;;;27.13;18.73;;;3.60;99.90;;;;;;5094747;28;20048;-68
2021/12/06 01:23:28;;;;;;;28.23;18.88;;;3.50;99.90;;;;;;5078473;28;20147;-68
2021/12/06 01:31:19;;;;;;;24.83;18.17;;;3.50;99.90;;;;;;5094670;28;20040;-69
2021/12/06 01:39:20;;;;;;;;;;;3.60;99.90;;;;;;5094841;28;20052;-69
2021/12/06 01:41:51;;;;;;;24.60;18.08;;;3.60;99.90;;;;;;5094829;28;19994;-68
2021/12/06 01:44:20;;;;;;;26.55;19.80;;;3.60;99.90;;;;;;5094656;28;20040;-69
2021/12/06 01:46:50;;;;;;;24.55;17.25;;;3.60;99.90;;;;;;5078014;28;20040;-69
2021/12/06 01:49:17;;;;;;;23.38;17.38;;;3.60;99.90;;;;;;5095317;28;20115;-68
2021/12/06 01:51:46;;;;;;;25.65;17.85;;;3.60;99.90;;;;;;5077969;28;20362;-68
2021/12/06 01:54:14;;;;;;;24.40;16.83;;;3.60;99.90;;;;;;5078928;28;20059;-68
2021/12/06 01:56:40;;;;;;;21.90;15.90;;;3.60;99.90;;;;;;5057247;28;20131;-70
2021/12/06 01:59:07;;;;;;;25.58;17.60;;;3.70;99.90;;;;;;5074337;28;20041;-69
2021/12/06 02:01:33;;;;;;;26.77;17.95;;;3.70;99.90;;;;;;5093809;28;20054;-69
2021/12/06 02:03:59;;;;;;;25.65;17.85;;;3.60;99.90;;;;;;5094393;28;20032;-68
2021/12/06 02:06:25;;;;;;;25.05;17.05;;;3.60;99.90;;;;;;5077464;28;20044;-68
2021/12/06 02:08:53;;;;;;;26.85;18.67;;;3.60;99.90;;;;;;5094475;28;20032;-68
2021/12/06 02:11:19;;;;;;;26.88;18.35;;;3.70;99.90;;;;;;5093430;28;20097;-68
2021/12/06 02:13:55;;;;;;;28.95;18.85;;;3.50;99.90;;;;;;5094300;28;20065;-68
2021/12/06 02:16:30;;;;;;;26.27;17.70;;;3.40;99.90;;;;;;5093578;28;20506;-69
2021/12/06 02:19:02;;;;;;;;;;;3.50;99.90;;;;;;5094252;28;20149;-69
2021/12/06 02:21:32;;;;;;;28.15;18.63;;;3.50;99.90;;;;;;5076932;28;19916;-69
2021/12/06 02:24:02;;;;;;;30.02;20.20;;;3.50;99.90;;;;;;5093982;28;20043;-69
2021/12/06 02:26:28;;;;;;;29.65;19.65;;;3.40;99.90;;;;;;5090597;28;20079;-70
2021/12/06 02:28:54;;;;;;;28.75;19.27;;;3.40;99.90;;;;;;5056307;28;20068;-70
2021/12/06 02:31:24;;;;;;;30.40;19.95;;;3.40;99.90;;;;;;5072476;28;20425;-70
2021/12/06 02:33:50;;;;;;;29.45;19.67;;;3.50;99.90;;;;;;5075050;28;20040;-70
2021/12/06 02:36:17;;;;;;;30.33;19.17;;;3.50;99.90;;;;;;5092092;28;20036;-68
2021/12/06 02:38:43;;;;;;;33.97;21.70;;;3.60;99.90;;;;;;5092366;28;20046;-68
2021/12/06 02:41:09;;;;;;;33.22;21.23;;;3.60;99.90;;;;;;5074921;28;20428;-69
2021/12/06 02:43:37;;;;;;;31.17;20.83;;;3.50;99.90;;;;;;5092381;28;20127;-69
2021/12/06 02:46:04;;;;;;;32.72;20.60;;;3.40;99.90;;;;;;5091867;28;20069;-70
2021/12/06 02:48:29;;;;;;;32.60;20.65;;;3.40;99.90;;;;;;5091924;28;20188;-69
2021/12/06 02:50:57;;;;;;;34.33;22.67;;;3.30;99.90;;;;;;5074396;28;20040;-69
2021/12/06 02:53:29;;;;;;;34.25;22.42;;;3.30;99.90;;;;;;5091838;28;20044;-69
2021/12/06 02:55:59;;;;;;;35.13;22.52;;;3.40;99.90;;;;;;5091851;28;20044;-69
2021/12/06 03:01:24;;;;;;;35.67;23.10;;;3.20;99.90;;;;;;5091020;28;20036;-69
2021/12/06 03:03:50;;;;;;;34.63;21.48;;;3.30;99.90;;;;;;5074912;28;20460;-69
2021/12/06 03:06:15;;;;;;;36.20;22.10;;;3.30;99.90;;;;;;5092771;28;20039;-68
2021/12/06 03:08:46;;;;;;;32.95;19.88;;;3.40;99.90;;;;;;5093067;28;20046;-69
2021/12/06 03:11:35;;;;;;;32.25;21.60;;;3.50;99.90;;;;;;5075830;28;20073;-69
2021/12/06 03:14:00;;;;;;;38.05;22.52;;;3.50;99.90;;;;;;5093220;28;20048;-69
2021/12/06 03:16:26;;;;;;;34.80;20.90;;;3.40;99.90;;;;;;5092679;28;20746;-68
2021/12/06 03:18:54;;;;;;;35.88;21.58;;;3.30;99.90;;;;;;5092760;28;20472;-69
2021/12/06 03:21:21;;;;;;;37.20;22.20;;;3.30;99.90;;;;;;5093811;28;20032;-69
2021/12/06 03:23:47;;;;;;;36.53;22.55;;;3.20;99.90;;;;;;5093178;28;20054;-69
2021/12/06 03:26:13;;;;;;;40.05;22.23;;;3.20;99.90;;;;;;5094018;28;20040;-69
2021/12/06 03:28:42;;;;;;;41.72;23.05;;;3.40;99.90;;;;;;5074904;28;20043;-69
2021/12/06 03:31:08;;;;;;;38.58;23.05;;;3.50;99.90;;;;;;5092066;28;20036;-69
2021/12/06 03:33:36;;;;;;;37.63;22.63;;;3.30;99.90;;;;;;5075958;28;20164;-69
2021/12/06 03:36:08;;;;;;;35.22;21.73;;;3.30;99.90;;;;;;5092806;28;20127;-70
2021/12/06 03:38:35;;;;;;;39.63;23.20;;;3.40;99.90;;;;;;5092841;28;20436;-69
2021/12/06 03:41:01;;;;;;;38.42;22.52;;;3.40;99.90;;;;;;5091905;28;20152;-69
2021/12/06 03:43:27;;;;;;;41.70;24.05;;;3.30;99.90;;;;;;5092937;28;20139;-69
2021/12/06 03:45:53;;;;;;;42.78;23.80;;;3.30;99.90;;;;;;5092896;28;20372;-71
2021/12/06 03:48:19;;;;;;;42.22;23.30;;;3.20;99.90;;;;;;5092516;28;20484;-68
2021/12/06 03:50:44;;;;;;;48.63;24.67;;;3.10;99.90;;;;;;5075320;28;20460;-69
2021/12/06 03:53:10;;;;;;;46.47;24.95;;;3.10;99.90;;;;;;5092568;28;20464;-69
2021/12/06 03:55:36;;;;;;;54.67;24.15;;;3.00;99.90;;;;;;5093308;28;20044;-69
2021/12/06 03:58:02;;;;;;;44.00;24.10;;;3.00;99.90;;;;;;5092752;28;20040;-69
2021/12/06 04:00:28;;;;;;;45.50;24.98;;;3.10;99.90;;;;;;5058232;28;20032;-69
2021/12/06 04:02:54;;;;;;;47.45;24.90;;;3.20;99.90;;;;;;5092576;28;20104;-70
2021/12/06 04:05:20;;;;;;;47.75;26.17;;;3.10;99.90;;;;;;5092467;28;20075;-69
2021/12/06 04:07:46;;;;;;;49.45;25.85;;;3.20;99.90;;;;;;5092924;28;20090;-69
2021/12/06 04:10:12;;;;;;;48.95;25.75;;;3.10;99.90;;;;;;5074814;28;20036;-70
2021/12/06 04:12:38;;;;;;;43.53;23.67;;;3.10;99.90;;;;;;5091915;28;20060;-69
2021/12/06 04:15:10;;;;;;;47.55;23.73;;;3.20;99.90;;;;;;5092207;28;20097;-69
2021/12/06 04:17:38;;;;;;;49.08;23.85;;;3.20;99.90;;;;;;5092235;28;20092;-69
2021/12/06 04:20:10;;;;;;;53.42;23.80;;;3.20;99.90;;;;;;5091904;28;20035;-69
2021/12/06 04:22:36;;;;;;;47.35;23.30;;;3.20;99.90;;;;;;5092409;28;20067;-69
2021/12/06 04:25:04;;;;;;;43.58;23.13;;;3.30;99.90;;;;;;5092261;28;20124;-69
2021/12/06 04:27:30;;;;;;;44.28;23.27;;;3.30;99.90;;;;;;5092408;28;20090;-69
2021/12/06 04:29:57;;;;;;;47.08;23.25;;;3.40;99.90;;;;;;5091906;28;20383;-69
2021/12/06 04:32:25;;;;;;;49.85;24.05;;;3.30;99.90;;;;;;5091911;28;20185;-69
2021/12/06 04:34:51;;;;;;;49.83;25.17;;;3.20;99.90;;;;;;5075421;28;20127;-69
2021/12/06 04:37:17;;;;;;;47.47;25.20;;;3.10;99.90;;;;;;5092329;28;20032;-69
2021/12/06 04:39:43;;;;;;;47.90;23.40;;;3.20;99.90;;;;;;5092379;28;20477;-69
2021/12/06 04:42:10;;;;;;;56.85;24.40;;;3.20;99.90;;;;;;5095849;28;20116;-69
2021/12/06 04:44:36;;;;;;;45.08;23.33;;;3.10;99.90;;;;;;5095759;28;20075;-70
2021/12/06 04:47:03;;;;;;;49.42;23.50;;;3.20;99.90;;;;;;5095804;28;20075;-70
2021/12/06 04:49:29;;;;;;;45.65;24.25;;;3.20;99.90;;;;;;5095462;28;20036;-69
2021/12/06 04:51:58;;;;;;;47.90;23.63;;;3.20;99.90;;;;;;5095679;28;20039;-69
2021/12/06 04:54:29;;;;;;;49.97;24.52;;;3.10;99.90;;;;;;5095512;28;20072;-69
2021/12/06 04:57:11;;;;;;;54.38;24.85;;;3.10;99.90;;;;;;5079863;28;20122;-69
2021/12/06 04:59:40;;;;;;;50.33;24.60;;;3.10;99.90;;;;;;5095163;28;20036;-70
2021/12/06 05:02:21;;;;;;;48.63;24.65;;;3.20;99.90;;;;;;5095750;28;20120;-69
2021/12/06 05:04:50;;;;;;;54.08;24.30;;;3.20;99.90;;;;;;5095584;28;20044;-69
2021/12/06 05:07:21;;;;;;;55.17;24.00;;;3.20;99.90;;;;;;5095372;28;20047;-69
2021/12/06 05:09:47;;;;;;;64.97;24.67;;;3.20;99.90;;;;;;5095021;28;20039;-69
2021/12/06 05:12:16;;;;;;;64.93;24.67;;;3.10;99.90;;;;;;5095274;28;20126;-69
2021/12/06 05:14:42;;;;;;;71.10;26.02;;;3.20;99.90;;;;;;5095404;28;20405;-70
2021/12/06 05:17:09;;;;;;;67.75;27.02;;;3.20;99.90;;;;;;5078235;28;20160;-69
2021/12/06 05:19:36;;;;;;;66.28;27.80;;;3.20;99.90;;;;;;5094576;28;20391;-69
2021/12/06 05:22:02;;;;;;;88.07;24.73;;;3.20;99.90;;;;;;5095501;28;20093;-69
2021/12/06 05:24:28;;;;;;;71.47;25.05;;;3.30;99.90;;;;;;5094921;28;20111;-69
2021/12/06 05:26:55;;;;;;;81.50;25.83;;;3.20;99.90;;;;;;5095220;28;20054;-69
2021/12/06 05:29:25;;;;;;;78.13;26.80;;;3.20;99.90;;;;;;5078094;28;20457;-69
2021/12/06 05:31:56;;;;;;;77.90;26.98;;;3.10;99.90;;;;;;5094960;28;20127;-69
2021/12/06 05:34:30;;;;;;;72.07;25.17;;;3.10;99.90;;;;;;5078015;28;20040;-69
2021/12/06 05:36:57;;;;;;;;;;;3.00;99.90;;;;;;5094630;28;20024;-69
2021/12/06 05:39:23;;;;;;;86.00;28.50;;;3.00;99.90;;;;;;5082757;28;19966;-69
2021/12/06 05:41:49;;;;;;;67.70;26.88;;;3.10;99.90;;;;;;5085276;28;20037;-69
2021/12/06 05:44:15;;;;;;;77.53;26.98;;;3.10;99.90;;;;;;5067280;28;20036;-69
2021/12/06 05:46:40;;;;;;;94.45;26.67;;;3.10;99.90;;;;;;5066102;28;20048;-69
2021/12/06 05:49:06;;;;;;;82.18;28.10;;;3.10;99.90;;;;;;5082534;28;20036;-68
2021/12/06 05:51:31;;;;;;;76.90;28.55;;;3.00;99.90;;;;;;5083918;28;20043;-69
2021/12/06 05:53:57;;;;;;;79.28;27.20;;;3.00;99.90;;;;;;5082099;28;20039;-68
2021/12/06 05:56:23;;;;;;;75.18;27.98;;;3.10;99.90;;;;;;5084401;28;20047;-69
2021/12/06 05:58:49;;;;;;;75.70;27.00;;;3.10;99.90;;;;;;5084279;28;20032;-69
2021/12/06 06:01:15;;;;;;;75.82;28.98;;;3.10;99.90;;;;;;5069059;28;20040;-69
2021/12/06 06:03:40;;;;;;;73.82;27.73;;;3.10;99.90;;;;;;5094572;28;20365;-68
2021/12/06 06:06:06;;;;;;;81.10;28.00;;;3.10;99.90;;;;;;5082594;28;20036;-68
2021/12/06 06:08:32;;;;;;;80.05;29.38;;;3.10;99.90;;;;;;5091175;28;20039;-69
2021/12/06 06:10:57;;;;;;;90.47;29.92;;;3.10;99.90;;;;;;5081850;28;20049;-68
2021/12/06 06:13:23;;;;;;;78.78;28.13;;;3.10;99.90;;;;;;5083223;28;20125;-69
2021/12/06 06:15:52;;;;;;;74.40;28.65;;;3.10;99.90;;;;;;5081638;28;20414;-69
2021/12/06 06:18:18;;;;;;;59.13;26.35;;;3.10;99.90;;;;;;5064738;28;20028;-68
2021/12/06 06:20:50;;;;;;;73.20;28.33;;;3.10;99.90;;;;;;5083437;28;20754;-69
2021/12/06 06:23:16;;;;;;;77.50;28.42;;;3.10;99.90;;;;;;5092362;28;20082;-68
2021/12/06 06:25:42;;;;;;;61.80;27.13;;;3.10;99.90;;;;;;5090603;28;20032;-68
2021/12/06 06:28:08;;;;;;;67.20;27.58;;;3.10;99.90;;;;;;5084307;28;20059;-68
2021/12/06 06:30:35;;;;;;;79.20;28.88;;;3.10;99.90;;;;;;5059533;28;20036;-68
2021/12/06 06:33:01;;;;;;;67.38;29.20;;;3.10;99.90;;;;;;5074089;28;20044;-67
2021/12/06 06:35:27;;;;;;;58.35;26.98;;;3.10;99.90;;;;;;5056904;28;20076;-68
2021/12/06 06:37:53;;;;;;;66.72;27.80;;;3.20;99.90;;;;;;5074015;28;20450;-70
2021/12/06 06:40:20;;;;;;;63.70;27.27;;;3.20;99.90;;;;;;5063123;28;20040;-69
2021/12/06 06:42:46;;;;;;;71.05;29.63;;;3.30;99.90;;;;;;5076480;28;20076;-69
2021/12/06 06:45:16;;;;;;;75.93;30.05;;;3.20;99.90;;;;;;5087044;28;20495;-71
2021/12/06 06:47:43;;;;;;;64.88;28.63;;;3.20;99.90;;;;;;5082803;28;20065;-69
2021/12/06 06:50:09;;;;;;;63.47;28.40;;;3.20;99.90;;;;;;5088319;28;20028;-71
2021/12/06 06:52:36;;;;;;;71.00;30.48;;;3.20;99.90;;;;;;5086693;28;20698;-68
2021/12/06 06:55:04;;;;;;;63.40;30.05;;;3.20;99.90;;;;;;5076686;28;20456;-66
2021/12/06 06:57:30;;;;;;;67.07;30.10;;;3.20;99.90;;;;;;5074402;28;20036;-71
2021/12/06 06:59:56;;;;;;;72.25;31.45;;;3.30;99.90;;;;;;5076377;28;20119;-68
2021/12/06 07:02:22;;;;;;;62.22;30.55;;;3.30;99.90;;;;;;5089383;28;20073;-71
2021/12/06 07:04:48;;;;;;;67.55;30.77;;;3.30;99.90;;;;;;5056568;28;20048;-70
2021/12/06 07:07:13;;;;;;;58.55;29.10;;;3.40;99.90;;;;;;5072900;28;20072;-71
2021/12/06 07:09:42;;;;;;;68.18;31.60;;;3.30;99.90;;;;;;5077689;28;20051;-73
2021/12/06 07:12:14;;;;;;;68.35;31.40;;;3.30;99.90;;;;;;5083243;28;20141;-71
2021/12/06 07:14:39;;;;;;;68.90;31.05;;;3.30;99.90;;;;;;5083875;28;20040;-69
2021/12/06 07:17:05;;;;;;;64.30;30.20;;;3.20;99.90;;;;;;5076252;28;20337;-70
2021/12/06 07:19:31;;;;;;;68.80;30.58;;;3.20;99.90;;;;;;5073712;28;20129;-71
2021/12/06 07:21:58;;;;;;;74.03;31.45;;;3.30;99.90;;;;;;5093966;28;20495;-71
2021/12/06 07:24:24;;;;;;;67.65;29.83;;;3.30;99.90;;;;;;5076133;28;20159;-70
2021/12/06 07:26:49;;;;;;;72.18;29.77;;;3.30;99.90;;;;;;5093978;28;20086;-71
2021/12/06 07:29:15;;;;;;;67.38;32.33;;;3.30;99.90;;;;;;5074485;28;20036;-70
2021/12/06 07:31:41;;;;;;;65.35;30.17;;;3.30;99.90;;;;;;5080929;28;20028;-71
2021/12/06 07:34:07;;;;;;;67.13;28.85;;;3.30;99.90;;;;;;5075114;28;20428;-73
2021/12/06 07:36:32;;;;;;;60.75;29.25;;;3.20;99.90;;;;;;5082404;28;20323;-71
2021/12/06 07:38:58;;;;;;;63.47;29.67;;;3.20;99.90;;;;;;5089775;28;20051;-70
2021/12/06 07:41:28;;;;;;;68.90;30.65;;;3.30;99.90;;;;;;5092740;28;20058;-70
2021/12/06 07:43:54;;;;;;;59.78;29.77;;;3.30;99.90;;;;;;5093801;28;20028;-71
2021/12/06 07:46:20;;;;;;;66.03;30.40;;;3.30;99.90;;;;;;5093907;28;20093;-71
2021/12/06 07:48:52;;;;;;;64.45;28.58;;;3.20;99.90;;;;;;5093331;28;20036;-70
2021/12/06 07:51:27;;;;;;;63.72;30.67;;;3.20;99.90;;;;;;5093180;28;20441;-71
2021/12/06 07:53:54;;;;;;;70.05;30.98;;;3.20;99.90;;;;;;5092735;28;20438;-70
2021/12/06 07:56:20;;;;;;;68.90;30.48;;;3.20;99.90;;;;;;5092557;28;20483;-71
2021/12/06 07:58:47;;;;;;;64.60;29.88;;;3.10;99.90;;;;;;5093475;28;20051;-70
2021/12/06 08:01:14;;;;;;;59.97;28.73;;;3.00;99.90;;;;;;5092960;28;20040;-70
2021/12/06 08:03:41;;;;;;;62.47;29.98;;;3.10;99.90;;;;;;5093662;28;20047;-70
2021/12/06 08:06:08;;;;;;;68.95;31.73;;;3.10;99.90;;;;;;5093695;28;20040;-72
2021/12/06 08:08:34;;;;;;;64.53;30.73;;;3.10;99.90;;;;;;5092944;28;20054;-70
2021/12/06 08:11:06;;;;;;;64.55;29.70;;;3.10;99.90;;;;;;5091863;28;20052;-70
2021/12/06 08:13:34;;;;;;;69.07;30.63;;;3.10;99.90;;;;;;5089395;28;20052;-70
2021/12/06 08:16:07;;;;;;;60.22;28.67;;;3.10;99.90;;;;;;5088772;28;20044;-69
2021/12/06 08:18:33;;;;;;;62.50;29.38;;;3.10;99.90;;;;;;5079569;28;20654;-71
2021/12/06 08:21:00;;;;;;;61.10;28.63;;;3.00;99.90;;;;;;5088428;28;20475;-70
2021/12/06 08:23:27;;;;;;;49.90;24.85;;;3.00;99.90;;;;;;5097088;28;20456;-69
2021/12/06 08:25:53;;;;;;;50.42;26.23;;;3.00;99.90;;;;;;5096537;28;20048;-70
2021/12/06 08:28:20;;;;;;;52.00;25.55;;;3.10;99.90;;;;;;5097292;28;20040;-71
2021/12/06 08:30:46;;;;;;;50.88;26.35;;;3.00;99.90;;;;;;5097023;28;20036;-71
2021/12/06 08:33:13;;;;;;;48.88;25.38;;;3.00;99.90;;;;;;5096057;28;20480;-73
2021/12/06 08:35:43;;;;;;;48.88;23.55;;;2.90;99.90;;;;;;5095966;28;20115;-71
2021/12/06 08:38:10;;;;;;;50.33;25.55;;;3.00;99.90;;;;;;5097385;28;20327;-73
2021/12/06 08:40:37;;;;;;;50.53;23.67;;;2.90;99.90;;;;;;5096566;28;20099;-72
2021/12/06 08:43:03;;;;;;;50.42;24.33;;;2.80;99.90;;;;;;5096908;28;20101;-71
2021/12/06 08:45:30;;;;;;;48.25;24.00;;;2.80;99.90;;;;;;5097017;28;20118;-70
2021/12/06 08:47:56;;;;;;;51.35;24.83;;;2.70;99.90;;;;;;5096699;28;20036;-71
2021/12/06 08:50:24;;;;;;;52.08;24.13;;;2.70;99.90;;;;;;5095619;28;20036;-71
2021/12/06 08:52:51;;;;;;;48.67;24.45;;;2.70;99.90;;;;;;5097064;28;20040;-71
2021/12/06 08:55:17;;;;;;;46.70;23.02;;;2.80;99.90;;;;;;5096720;28;20040;-72
2021/12/06 08:57:43;;;;;;;48.95;25.10;;;2.80;99.90;;;;;;5096866;28;20047;-71
2021/12/06 09:00:17;;;;;;;48.13;23.48;;;2.80;99.90;;;;;;5095996;28;20028;-72
2021/12/06 09:02:44;;;;;;;52.58;24.23;;;2.80;99.90;;;;;;5079059;28;20392;-71
2021/12/06 09:05:10;;;;;;;47.15;23.55;;;2.80;99.90;;;;;;5095378;28;20063;-70
2021/12/06 09:07:36;;;;;;;49.38;23.88;;;2.80;99.90;;;;;;5078709;28;20433;-70
2021/12/06 09:10:04;;;;;;;46.72;23.77;;;2.80;99.90;;;;;;5095072;28;20117;-71
2021/12/06 09:12:31;;;;;;;47.45;23.25;;;2.90;99.90;;;;;;5095279;28;20456;-71
2021/12/06 09:15:02;;;;;;;50.78;24.00;;;2.90;99.90;;;;;;5078373;28;20083;-71
2021/12/06 09:17:28;;;;;;;47.70;24.27;;;2.90;99.90;;;;;;5095277;28;20079;-71
2021/12/06 09:19:57;;;;;;;46.90;23.48;;;2.90;99.90;;;;;;5094532;28;20164;-68
2021/12/06 09:22:24;;;;;;;47.75;24.17;;;3.00;99.90;;;;;;5095213;28;20044;-70
2021/12/06 09:24:51;;;;;;;46.05;23.30;;;2.90;99.90;;;;;;5095091;28;20063;-71
2021/12/06 09:27:18;;;;;;;46.53;22.58;;;3.00;99.90;;;;;;5093667;28;20115;-72
2021/12/06 09:29:45;;;;;;;46.33;22.92;;;3.00;99.90;;;;;;5077750;28;20139;-70
2021/12/06 09:32:13;;;;;;;49.88;23.60;;;3.00;99.90;;;;;;5091761;28;20050;-72
2021/12/06 09:34:45;;;;;;;43.28;22.27;;;2.90;99.90;;;;;;5093384;28;20048;-71
2021/12/06 09:37:12;;;;;;;45.30;22.27;;;3.00;99.90;;;;;;5090675;28;20079;-72
2021/12/06 09:39:38;;;;;;;45.28;22.70;;;3.00;99.90;;;;;;5089058;28;20036;-71
2021/12/06 09:42:06;;;;;;;47.10;23.10;;;3.00;99.90;;;;;;5094654;28;20036;-70
2021/12/06 09:44:32;;;;;;;42.95;21.77;;;3.00;99.90;;;;;;5094762;28;20047;-72
2021/12/06 09:46:59;;;;;;;42.53;21.73;;;3.00;99.90;;;;;;5077358;28;20350;-70
2021/12/06 09:49:25;;;;;;;41.92;21.42;;;3.00;99.90;;;;;;5094322;28;20058;-70
2021/12/06 09:51:55;;;;;;;41.75;21.55;;;3.00;99.90;;;;;;5094419;28;20040;-72
2021/12/06 09:54:23;;;;;;;48.08;24.17;;;3.00;99.90;;;;;;5094879;28;20402;-71
2021/12/06 09:56:53;;;;;;;41.97;21.88;;;3.00;99.90;;;;;;5077822;28;20131;-70
2021/12/06 09:59:23;;;;;;;44.17;22.80;;;3.00;99.90;;;;;;5094734;28;20047;-70
2021/12/06 10:01:53;;;;;;;51.90;24.15;;;3.00;99.90;;;;;;5094477;28;20048;-70
2021/12/06 10:04:21;;;;;;;49.67;23.75;;;3.00;99.90;;;;;;5077926;28;20075;-71
2021/12/06 10:06:49;;;;;;;47.88;23.88;;;3.00;99.90;;;;;;5094264;28;20043;-72
2021/12/06 10:09:18;;;;;;;48.70;23.92;;;3.00;99.90;;;;;;5093853;28;20044;-71
2021/12/06 10:11:44;;;;;;;53.08;24.75;;;3.00;99.90;;;;;;5093895;28;20051;-71
2021/12/06 10:14:11;;;;;;;54.20;25.23;;;3.00;99.90;;;;;;5093983;28;20047;-72
2021/12/06 10:16:37;;;;;;;57.25;25.52;;;3.10;99.90;;;;;;5076671;28;20477;-72
2021/12/06 10:19:05;;;;;;;51.08;25.30;;;3.00;99.90;;;;;;5093079;28;20046;-70
2021/12/06 10:21:32;;;;;;;46.35;21.88;;;3.00;99.90;;;;;;5093740;28;20481;-70
2021/12/06 10:23:59;;;;;;;40.42;21.45;;;3.10;99.90;;;;;;5081761;28;20432;-71
2021/12/06 10:26:30;;;;;;;47.67;22.92;;;3.20;99.90;;;;;;5093949;28;20047;-70
2021/12/06 10:29:02;;;;;;;47.20;23.75;;;3.20;99.90;;;;;;5093145;28;20123;-70
2021/12/06 10:31:30;;;;;;;48.55;23.42;;;3.10;99.90;;;;;;5093499;28;20054;-71
2021/12/06 10:33:56;;;;;;;45.30;22.58;;;3.10;99.90;;;;;;5093593;28;20075;-70
2021/12/06 10:36:25;;;;;;;49.10;23.63;;;3.10;99.90;;;;;;5076953;28;20075;-70
2021/12/06 10:38:53;;;;;;;45.58;21.73;;;3.00;99.90;;;;;;5092762;28;20044;-71
2021/12/06 10:41:23;;;;;;;46.65;22.48;;;3.10;99.90;;;;;;5066554;28;20037;-71
2021/12/06 10:44:00;;;;;;;46.85;22.13;;;3.10;99.90;;;;;;5065806;28;20388;-70
2021/12/06 10:46:27;;;;;;;42.95;20.13;;;3.10;99.90;;;;;;5089713;28;20043;-69
2021/12/06 10:48:59;;;;;;;48.60;22.20;;;3.10;99.90;;;;;;5063623;28;20071;-71
2021/12/06 10:51:26;;;;;;;45.72;23.08;;;3.10;99.90;;;;;;5093402;28;20121;-70
2021/12/06 10:54:07;;;;;;;45.17;22.40;;;3.10;99.90;;;;;;5093843;28;20472;-70
2021/12/06 10:56:45;;;;;;;45.28;22.80;;;3.20;99.90;;;;;;5092377;28;20104;-71
2021/12/06 10:59:24;;;;;;;41.10;21.45;;;3.10;99.90;;;;;;5093077;28;20040;-71
2021/12/06 11:01:53;;;;;;;47.75;22.95;;;3.20;99.90;;;;;;5088926;28;20040;-71
2021/12/06 11:04:22;;;;;;;48.00;23.58;;;3.20;99.90;;;;;;5073116;28;20063;-70
2021/12/06 11:06:51;;;;;;;48.00;23.52;;;3.20;99.90;;;;;;5081997;28;20161;-70
2021/12/06 11:09:22;;;;;;;47.33;23.02;;;3.20;99.90;;;;;;5076365;28;20059;-69
2021/12/06 11:11:51;;;;;;;49.78;23.23;;;3.20;99.90;;;;;;5087459;28;20061;-69
2021/12/06 11:14:32;;;;;;;53.47;25.05;;;3.20;99.90;;;;;;5092590;28;20112;-71
2021/12/06 11:17:03;;;;;;;43.20;22.20;;;3.20;99.90;;;;;;5092445;28;20449;-70
2021/12/06 11:19:31;;;;;;;52.70;25.75;;;3.20;99.90;;;;;;5091994;28;20190;-70
2021/12/06 11:21:57;;;;;;;52.70;26.55;;;3.20;99.90;;;;;;5092189;28;20046;-70
2021/12/06 11:24:28;;;;;;;58.70;26.88;;;3.20;99.90;;;;;;5076211;28;20483;-70
2021/12/06 11:27:06;;;;;;;59.50;27.58;;;3.20;99.90;;;;;;5092928;28;20043;-71
2021/12/06 11:29:45;;;;;;;57.63;28.23;;;3.20;99.90;;;;;;5062653;28;20036;-71
2021/12/06 11:32:12;;;;;;;53.53;26.90;;;3.10;99.90;;;;;;5062703;28;20028;-71
2021/12/06 11:35:06;;;;;;;56.90;26.67;;;3.20;99.90;;;;;;5073621;28;20473;-72
2021/12/06 11:37:35;;;;;;;56.83;27.95;;;3.20;99.90;;;;;;5083240;28;20052;-75
2021/12/06 11:40:14;;;;;;;53.42;27.92;;;3.30;99.90;;;;;;5091467;28;20032;-72
2021/12/06 11:42:56;;;;;;;54.50;26.33;;;3.30;99.90;;;;;;5075583;28;20044;-72
2021/12/06 11:45:31;;;;;;;54.30;28.25;;;3.30;99.90;;;;;;5075685;28;20036;-72
2021/12/06 11:48:01;;;;;;;52.90;27.90;;;3.30;99.90;;;;;;5092186;28;20131;-70
2021/12/06 11:50:27;;;;;;;50.05;27.17;;;3.30;99.90;;;;;;5090887;28;20423;-71
2021/12/06 11:52:53;;;;;;;52.60;27.13;;;3.40;99.90;;;;;;5068204;28;20064;-72
2021/12/06 11:55:19;;;;;;;54.60;28.15;;;3.40;99.90;;;;;;5081159;28;20133;-71
2021/12/06 11:57:53;;;;;;;54.53;27.52;;;3.40;99.90;;;;;;5087036;28;20480;-71
2021/12/06 12:00:21;;;;;;;57.88;28.98;;;3.40;99.90;;;;;;5091501;28;20051;-71
2021/12/06 12:02:50;;;;;;;61.35;30.75;;;3.40;99.90;;;;;;5092228;28;20039;-72
2021/12/06 12:05:33;;;;;;;58.67;29.77;;;3.30;99.90;;;;;;5091969;28;20052;-71
2021/12/06 12:08:01;;;;;;;61.72;30.60;;;3.40;99.90;;;;;;5091557;28;20040;-72
2021/12/06 12:10:37;;;;;;;63.22;30.70;;;3.40;99.90;;;;;;5091488;28;20040;-71
2021/12/06 12:13:10;;;;;;;65.75;32.45;;;3.40;99.90;;;;;;5091667;28;20059;-71
2021/12/06 12:15:37;;;;;;;59.80;30.35;;;3.40;99.90;;;;;;5091674;28;20094;-71
2021/12/06 12:18:03;;;;;;;60.75;29.55;;;3.40;99.90;;;;;;5074453;28;20053;-73
2021/12/06 12:20:30;;;;;;;68.32;31.15;;;3.50;99.90;;;;;;5074620;28;20124;-73
2021/12/06 12:23:01;;;;;;;67.78;30.25;;;3.50;99.90;;;;;;5091650;28;20051;-72
2021/12/06 12:25:36;;;;;;;59.47;28.83;;;3.50;99.90;;;;;;5074215;28;20089;-73
2021/12/06 12:28:24;;;;;;;;;;;3.50;99.90;;;;;;5074677;28;20128;-73
2021/12/06 12:30:54;;;;;;;65.72;30.77;;;3.60;99.90;;;;;;5091204;28;20447;-74
2021/12/06 12:33:20;;;;;;;56.10;29.30;;;3.60;99.90;;;;;;5091264;28;20453;-74
2021/12/06 12:35:57;;;;;;;62.83;30.42;;;3.60;99.90;;;;;;5091118;28;20127;-74
2021/12/06 12:38:27;;;;;;;63.88;29.85;;;3.50;99.90;;;;;;5091022;28;20044;-72
2021/12/06 12:40:57;;;;;;;68.55;31.52;;;3.50;99.90;;;;;;5091124;28;20036;-73
2021/12/06 12:43:40;;;;;;;60.10;30.02;;;3.50;99.90;;;;;;5091318;28;20044;-73
2021/12/06 12:46:10;;;;;;;64.03;31.17;;;3.50;99.90;;;;;;5074035;28;20142;-73
2021/12/06 12:49:00;;;;;;;63.60;32.78;;;3.60;99.90;;;;;;5062523;28;20048;-69
2021/12/06 12:51:37;;;;;;;66.80;32.10;;;3.50;99.90;;;;;;5082445;28;20193;-73
2021/12/06 12:54:08;;;;;;;61.22;30.75;;;3.40;99.90;;;;;;5091449;28;20055;-72
2021/12/06 12:56:42;;;;;;;59.75;30.83;;;3.50;99.90;;;;;;5092394;28;20040;-72
2021/12/06 12:59:25;;;;;;;68.18;31.00;;;3.50;99.90;;;;;;5091835;28;20468;-73